createdAt,value
2023-01-30T00:02:00.910Z,34.00
2023-01-30T00:05:02.611Z,33.00
2023-01-30T00:11:11.748Z,32.20
2023-01-30T00:14:13.484Z,33.10
2023-01-30T00:17:15.087Z,32.40
2023-01-30T00:20:17.413Z,32.90
2023-01-30T00:23:19.229Z,33.00
2023-01-30T00:26:20.893Z,34.10
2023-01-30T00:29:22.544Z,32.10
2023-01-30T00:32:24.181Z,31.50
2023-01-30T00:35:26.258Z,31.20
2023-01-30T00:38:27.863Z,30.60
2023-01-30T00:44:31.183Z,31.00
2023-01-30T00:47:32.824Z,29.50
2023-01-30T00:50:34.340Z,30.70
2023-01-30T00:53:35.999Z,29.30
2023-01-30T00:59:39.509Z,29.80
2023-01-30T01:02:41.213Z,32.70
2023-01-30T01:08:45.220Z,33.00
2023-01-30T01:11:46.816Z,33.00
2023-01-30T01:17:50.293Z,32.90
2023-01-30T01:20:52.061Z,35.80
2023-01-30T01:23:56.405Z,35.40
2023-01-30T01:26:58.607Z,33.30
2023-01-30T01:30:02.284Z,34.00
2023-01-30T01:33:04.494Z,33.10
2023-01-30T01:36:07.148Z,31.80
2023-01-30T01:39:08.906Z,32.90
2023-01-30T01:42:11.414Z,32.20
2023-01-30T01:45:20.158Z,31.70
2023-01-30T01:48:32.111Z,31.80
2023-01-30T01:51:41.853Z,32.60
2023-01-30T01:54:47.351Z,30.20
2023-01-30T01:57:53.531Z,32.00
2023-01-30T02:00:57.667Z,31.60
2023-01-30T02:04:03.739Z,31.40
2023-01-30T02:07:05.342Z,31.10
2023-01-30T02:10:09.987Z,31.00
2023-01-30T02:13:11.607Z,32.60
2023-01-30T02:19:50.520Z,32.50
2023-01-30T02:23:13.515Z,32.30
2023-01-30T02:26:34.101Z,32.10
2023-01-30T02:30:04.235Z,33.00
2023-01-30T02:33:13.636Z,32.00
2023-01-30T02:36:17.767Z,32.40
2023-01-30T02:39:34.474Z,32.80
2023-01-30T02:43:04.930Z,33.60
2023-01-30T02:46:20.513Z,32.30
2023-01-30T02:49:32.075Z,31.30
2023-01-30T02:52:34.073Z,34.80
2023-01-30T02:55:35.802Z,32.00
2023-01-30T02:58:43.121Z,31.50
2023-01-30T03:01:53.805Z,32.40
2023-01-30T03:05:01.431Z,32.80
2023-01-30T03:08:24.356Z,33.10
2023-01-30T03:11:32.790Z,35.40
2023-01-30T03:15:02.758Z,38.10
2023-01-30T03:18:04.520Z,38.40
2023-01-30T03:21:06.917Z,38.00
2023-01-30T03:24:08.568Z,38.90
2023-01-30T03:27:12.413Z,38.20
2023-01-30T03:30:14.489Z,41.10
2023-01-30T03:36:17.602Z,39.10
2023-01-30T03:39:19.309Z,38.40
2023-01-30T03:42:21.316Z,35.40
2023-01-30T03:45:22.970Z,36.50
2023-01-30T03:48:24.604Z,35.60
2023-01-30T03:51:26.273Z,33.70
2023-01-30T03:54:27.853Z,30.10
2023-01-30T03:57:29.590Z,30.80
2023-01-30T04:00:31.183Z,29.00
2023-01-30T04:03:33.733Z,30.70
2023-01-30T04:06:36.673Z,27.40
2023-01-30T04:09:38.460Z,28.60
2023-01-30T04:12:40.021Z,31.10
2023-01-30T04:15:41.601Z,30.20
2023-01-30T04:18:43.316Z,32.80
2023-01-30T04:21:45.007Z,31.60
2023-01-30T04:24:46.652Z,33.30
2023-01-30T04:27:48.217Z,31.80
2023-01-30T04:30:50.009Z,32.10
2023-01-30T04:36:53.196Z,31.40
2023-01-30T04:39:54.794Z,34.90
2023-01-30T04:42:56.333Z,33.10
2023-01-30T04:45:58.431Z,34.70
2023-01-30T04:49:00.044Z,35.20
2023-01-30T04:52:01.612Z,34.50
2023-01-30T04:55:03.300Z,33.60
2023-01-30T04:58:04.872Z,35.40
2023-01-30T05:01:21.425Z,34.30
2023-01-30T05:04:23.024Z,34.20
2023-01-30T05:07:24.799Z,32.80
2023-01-30T05:10:26.444Z,36.60
2023-01-30T05:13:27.992Z,34.90
2023-01-30T05:16:29.737Z,34.20
2023-01-30T05:19:31.239Z,32.80
2023-01-30T05:22:33.201Z,33.70
2023-01-30T05:28:36.258Z,35.20
2023-01-30T05:31:37.995Z,34.20
2023-01-30T05:34:39.586Z,35.10
2023-01-30T05:37:41.272Z,34.40
2023-01-30T05:40:43.071Z,34.50
2023-01-30T05:46:46.395Z,35.80
2023-01-30T05:49:48.116Z,34.10
2023-01-30T05:52:49.800Z,35.60
2023-01-30T05:55:55.862Z,34.20
2023-01-30T05:58:57.489Z,32.40
2023-01-30T06:01:59.071Z,32.00
2023-01-30T06:05:00.689Z,32.80
2023-01-30T06:08:02.244Z,34.40
2023-01-30T06:11:09.886Z,35.10
2023-01-30T06:14:11.564Z,34.90
2023-01-30T06:17:13.285Z,34.60
2023-01-30T06:20:14.835Z,33.00
2023-01-30T06:23:17.275Z,31.00
2023-01-30T06:26:19.022Z,28.90
2023-01-30T06:32:23.217Z,28.80
2023-01-30T06:35:24.873Z,27.80
2023-01-30T06:41:28.053Z,24.00
2023-01-30T06:44:29.807Z,22.50
2023-01-30T06:47:31.311Z,22.90
2023-01-30T06:50:32.890Z,22.40
2023-01-30T06:53:34.483Z,20.80
2023-01-30T06:56:36.219Z,19.20
2023-01-30T06:59:37.921Z,19.20
2023-01-30T07:02:40.127Z,17.90
2023-01-30T07:05:43.088Z,19.10
2023-01-30T07:08:44.675Z,19.90
2023-01-30T07:11:46.258Z,19.30
2023-01-30T07:17:49.623Z,19.50
2023-01-30T07:20:51.353Z,19.30
2023-01-30T07:23:53.264Z,20.00
2023-01-30T07:26:55.064Z,17.30
2023-01-30T07:29:56.753Z,15.70
2023-01-30T07:32:59.856Z,16.50
2023-01-30T07:36:01.429Z,16.30
2023-01-30T07:39:03.798Z,15.10
2023-01-30T07:42:05.855Z,14.30
2023-01-30T07:45:08.391Z,15.20
2023-01-30T07:48:11.993Z,16.30
2023-01-30T07:51:13.872Z,15.80
2023-01-30T07:57:17.174Z,15.80
2023-01-30T08:00:19.332Z,16.40
2023-01-30T08:03:21.181Z,15.90
2023-01-30T08:06:22.841Z,16.90
2023-01-30T08:09:24.427Z,16.00
2023-01-30T08:12:26.145Z,16.00
2023-01-30T08:15:27.814Z,14.00
2023-01-30T08:18:30.644Z,15.40
2023-01-30T08:21:32.820Z,14.10
2023-01-30T08:24:34.390Z,15.30
2023-01-30T08:30:37.931Z,16.00
2023-01-30T08:33:39.767Z,16.40
2023-01-30T08:36:41.516Z,17.10
2023-01-30T08:39:43.005Z,16.60
2023-01-30T08:42:45.189Z,15.30
2023-01-30T08:45:46.823Z,15.30
2023-01-30T08:48:50.270Z,13.80
2023-01-30T08:51:52.135Z,14.20
2023-01-30T08:57:56.962Z,15.00
2023-01-30T09:00:58.601Z,15.10
2023-01-30T09:04:00.258Z,13.00
2023-01-30T09:07:01.904Z,13.80
2023-01-30T09:10:04.179Z,12.80
2023-01-30T09:13:09.111Z,14.20
2023-01-30T09:16:11.459Z,13.40
2023-01-30T09:19:13.278Z,14.80
2023-01-30T09:25:16.445Z,14.90
2023-01-30T09:28:18.120Z,13.70
2023-01-30T09:31:19.962Z,14.00
2023-01-30T09:34:22.365Z,14.00
2023-01-30T09:37:24.475Z,14.80
2023-01-30T09:40:31.881Z,13.60
2023-01-30T09:44:08.588Z,14.50
2023-01-30T09:47:38.720Z,14.10
2023-01-30T09:51:02.239Z,12.60
2023-01-30T09:54:12.921Z,12.60
2023-01-30T09:57:22.473Z,13.50
2023-01-30T10:00:38.599Z,12.50
2023-01-30T10:03:53.126Z,12.70
2023-01-30T10:07:13.025Z,12.50
2023-01-30T10:10:24.107Z,12.80
2023-01-30T10:13:33.851Z,12.60
2023-01-30T10:16:47.332Z,13.40
2023-01-30T10:20:18.175Z,13.00
2023-01-30T10:23:39.227Z,12.10
2023-01-30T10:26:41.764Z,13.10
2023-01-30T10:29:54.230Z,13.50
2023-01-30T10:33:03.064Z,12.70
2023-01-30T10:36:11.756Z,14.20
2023-01-30T10:39:54.281Z,14.00
2023-01-30T10:43:23.325Z,12.40
2023-01-30T10:46:35.524Z,14.20
2023-01-30T10:50:19.467Z,13.60
2023-01-30T10:53:28.980Z,13.20
2023-01-30T10:56:48.831Z,13.60
2023-01-30T10:59:55.570Z,14.10
2023-01-30T11:03:20.913Z,12.80
2023-01-30T11:06:24.505Z,12.90
2023-01-30T11:09:41.729Z,12.80
2023-01-30T11:12:43.317Z,13.10
2023-01-30T11:15:47.510Z,12.70
2023-01-30T11:22:14.360Z,12.60
2023-01-30T11:25:21.478Z,13.20
2023-01-30T11:28:25.067Z,13.50
2023-01-30T11:31:40.849Z,13.50
2023-01-30T11:34:44.093Z,13.80
2023-01-30T11:37:45.848Z,14.10
2023-01-30T11:40:47.671Z,14.70
2023-01-30T11:46:50.903Z,14.10
2023-01-30T11:50:03.706Z,14.00
2023-01-30T11:53:20.240Z,14.10
2023-01-30T11:56:33.271Z,15.80
2023-01-30T11:59:54.286Z,14.90
2023-01-30T12:02:57.008Z,14.40
2023-01-30T12:05:58.966Z,15.00
2023-01-30T12:09:01.108Z,14.80
2023-01-30T12:12:04.057Z,15.50
2023-01-30T12:15:15.311Z,15.50
2023-01-30T12:18:43.136Z,16.00
2023-01-30T12:22:00.075Z,17.70
2023-01-30T12:25:09.158Z,17.50
2023-01-30T12:28:37.766Z,18.00
2023-01-30T12:31:54.661Z,17.50
2023-01-30T12:34:56.195Z,17.50
2023-01-30T12:41:02.650Z,18.70
2023-01-30T12:44:24.269Z,18.80
2023-01-30T12:47:47.005Z,17.90
2023-01-30T12:51:21.298Z,20.60
2023-01-30T12:54:45.233Z,19.00
2023-01-30T12:58:03.653Z,19.30
2023-01-30T13:01:23.384Z,18.90
2023-01-30T13:04:56.132Z,20.70
2023-01-30T13:08:17.649Z,19.30
2023-01-30T13:12:04.089Z,19.30
2023-01-30T13:15:21.074Z,20.30
2023-01-30T13:18:35.476Z,20.70
2023-01-30T13:21:47.173Z,20.20
2023-01-30T13:24:58.544Z,20.90
2023-01-30T13:28:09.783Z,20.60
2023-01-30T13:31:17.258Z,19.80
2023-01-30T13:34:48.295Z,21.00
2023-01-30T13:37:51.271Z,21.30
2023-01-30T13:40:56.971Z,21.60
2023-01-30T13:43:59.005Z,22.20
2023-01-30T13:47:20.437Z,20.70
2023-01-30T13:50:34.398Z,21.80
2023-01-30T13:53:44.775Z,21.10
2023-01-30T13:56:51.604Z,22.20
2023-01-30T14:00:22.885Z,20.80
2023-01-30T14:03:32.566Z,20.10
2023-01-30T14:06:37.340Z,18.60
2023-01-30T14:10:08.765Z,19.00
2023-01-30T14:13:13.716Z,18.20
2023-01-30T14:16:15.313Z,17.90
2023-01-30T14:19:48.174Z,17.60
2023-01-30T14:23:01.115Z,18.40
2023-01-30T14:26:03.058Z,16.90
2023-01-30T14:29:07.585Z,17.20
2023-01-30T14:32:12.944Z,17.90
2023-01-30T14:35:20.990Z,18.00
2023-01-30T14:38:23.037Z,17.00
2023-01-30T14:45:05.966Z,17.90
2023-01-30T14:48:32.138Z,17.60
2023-01-30T14:51:37.184Z,17.40
2023-01-30T14:54:44.765Z,16.20
2023-01-30T14:57:55.115Z,18.20
2023-01-30T15:00:59.970Z,18.60
2023-01-30T15:04:03.623Z,16.40
2023-01-30T15:07:09.685Z,17.40
2023-01-30T15:10:27.752Z,16.10
2023-01-30T15:14:01.122Z,16.50
2023-01-30T15:17:05.510Z,16.10
2023-01-30T15:20:29.142Z,16.10
2023-01-30T15:24:15.916Z,15.20
2023-01-30T15:27:32.678Z,14.80
2023-01-30T15:30:52.666Z,14.80
2023-01-30T15:33:55.546Z,15.00
2023-01-30T15:36:57.566Z,14.20
2023-01-30T15:40:19.231Z,15.60
2023-01-30T15:43:58.954Z,15.10
2023-01-30T15:47:34.628Z,14.10
2023-01-30T15:50:36.910Z,14.10
2023-01-30T15:53:42.862Z,15.20
2023-01-30T15:56:48.685Z,15.60
2023-01-30T15:59:53.246Z,15.40
2023-01-30T16:02:55.541Z,14.10
2023-01-30T16:05:58.387Z,13.50
2023-01-30T16:09:06.502Z,13.60
2023-01-30T16:12:30.033Z,12.80
2023-01-30T16:15:40.203Z,15.60
2023-01-30T16:18:44.561Z,14.20
2023-01-30T16:21:46.483Z,14.90
2023-01-30T16:24:51.330Z,13.70
2023-01-30T16:27:53.288Z,14.10
2023-01-30T16:34:01.142Z,14.70
2023-01-30T16:37:07.064Z,14.60
2023-01-30T16:40:16.001Z,15.00
2023-01-30T16:43:20.050Z,14.60
2023-01-30T16:46:45.937Z,15.80
2023-01-30T16:49:49.442Z,16.70
2023-01-30T16:52:52.727Z,18.60
2023-01-30T16:55:56.375Z,17.70
2023-01-30T16:58:59.686Z,19.20
2023-01-30T17:02:03.153Z,19.50
2023-01-30T17:05:22.500Z,19.60
2023-01-30T17:08:33.359Z,17.70
2023-01-30T17:11:40.088Z,18.30
2023-01-30T17:14:41.815Z,18.00
2023-01-30T17:17:44.263Z,17.10
2023-01-30T17:20:45.862Z,16.60
2023-01-30T17:26:56.109Z,13.80
2023-01-30T17:29:57.990Z,14.00
2023-01-30T17:32:59.661Z,14.20
2023-01-30T17:36:04.644Z,13.50
2023-01-30T17:39:11.697Z,14.30
2023-01-30T17:42:14.546Z,13.50
2023-01-30T17:45:16.287Z,13.50
2023-01-30T17:51:19.389Z,14.00
2023-01-30T17:54:21.661Z,14.60
2023-01-30T17:57:23.400Z,13.30
2023-01-30T18:03:26.800Z,12.70
2023-01-30T18:06:28.470Z,13.40
2023-01-30T18:09:30.509Z,12.70
2023-01-30T18:12:32.046Z,12.00
2023-01-30T18:15:33.628Z,11.40
2023-01-30T18:18:35.327Z,11.10
2023-01-30T18:21:38.067Z,12.40
2023-01-30T18:24:39.658Z,12.40
2023-01-30T18:27:42.831Z,11.70
2023-01-30T18:30:44.594Z,11.40
2023-01-30T18:33:46.724Z,11.70
2023-01-30T18:36:48.546Z,11.60
2023-01-30T18:39:50.059Z,11.90
2023-01-30T18:42:51.782Z,11.10
2023-01-30T18:46:05.570Z,10.30
2023-01-30T18:49:07.223Z,10.80
2023-01-30T18:52:09.383Z,15.40
2023-01-30T18:58:12.498Z,9.50
2023-01-30T19:01:16.829Z,9.70
2023-01-30T19:04:18.647Z,9.50
2023-01-30T19:07:20.804Z,9.20
2023-01-30T19:13:24.038Z,9.80
2023-01-30T19:19:27.852Z,9.80
2023-01-30T19:25:31.136Z,8.70
2023-01-30T19:28:32.873Z,8.30
2023-01-30T19:31:34.521Z,8.10
2023-01-30T19:34:36.138Z,8.90
2023-01-30T19:37:37.778Z,8.30
2023-01-30T19:40:46.594Z,8.60
2023-01-30T19:43:48.153Z,8.80
2023-01-30T19:49:51.968Z,8.60
2023-01-30T19:52:53.559Z,8.10
2023-01-30T19:55:55.174Z,8.10
2023-01-30T19:58:58.834Z,8.30
2023-01-30T20:02:00.466Z,8.60
2023-01-30T20:05:02.110Z,8.70
2023-01-30T20:11:07.609Z,8.40
2023-01-30T20:14:10.030Z,9.30
2023-01-30T20:17:11.668Z,8.20
2023-01-30T20:20:13.351Z,8.90
2023-01-30T20:23:14.993Z,9.40
2023-01-30T20:26:20.277Z,8.60
2023-01-30T20:29:21.869Z,8.90
2023-01-30T20:32:23.515Z,8.40
2023-01-30T20:35:25.085Z,9.30
2023-01-30T20:38:29.986Z,9.70
2023-01-30T20:41:32.046Z,8.80
2023-01-30T20:44:33.793Z,9.80
2023-01-30T20:50:37.324Z,10.50
2023-01-30T20:56:49.083Z,9.60
2023-01-30T20:59:50.636Z,9.60
2023-01-30T21:02:52.327Z,9.10
2023-01-30T21:09:02.487Z,10.10
2023-01-30T21:12:04.464Z,10.10
2023-01-30T21:15:06.634Z,9.90
2023-01-30T21:18:08.412Z,9.00
2023-01-30T21:24:17.440Z,9.10
2023-01-30T21:27:19.076Z,9.60
2023-01-30T21:30:20.614Z,10.30
2023-01-30T21:33:22.190Z,10.10
2023-01-30T21:36:24.600Z,10.70
2023-01-30T21:39:26.377Z,11.30
2023-01-30T21:45:29.458Z,11.30
2023-01-30T21:48:31.077Z,11.50
2023-01-30T21:51:32.994Z,11.30
2023-01-30T21:54:34.546Z,11.20
2023-01-30T21:57:36.617Z,12.00
2023-01-30T22:00:38.246Z,11.10
2023-01-30T22:03:40.109Z,11.50
2023-01-30T22:06:42.622Z,11.40
2023-01-30T22:09:44.232Z,12.60
2023-01-30T22:12:45.931Z,11.50
2023-01-30T22:18:54.522Z,12.10
2023-01-30T22:21:56.315Z,12.10
2023-01-30T22:24:57.833Z,12.30
2023-01-30T22:27:59.392Z,12.20
2023-01-30T22:31:03.819Z,11.20
2023-01-30T22:34:06.413Z,11.00
2023-01-30T22:37:08.098Z,12.00
2023-01-30T22:40:10.497Z,11.10
2023-01-30T22:43:12.154Z,12.90
2023-01-30T22:52:17.550Z,13.70
2023-01-30T22:55:19.414Z,12.40
2023-01-30T22:58:21.180Z,12.50
2023-01-30T23:01:24.246Z,13.20
2023-01-30T23:04:25.951Z,12.70
2023-01-30T23:07:27.717Z,13.00
2023-01-30T23:10:29.296Z,12.80
2023-01-30T23:13:30.945Z,13.30
2023-01-30T23:16:34.180Z,14.20
2023-01-30T23:19:35.840Z,13.90
2023-01-30T23:22:37.845Z,13.00
2023-01-30T23:25:41.007Z,13.60
2023-01-30T23:28:42.643Z,12.80
2023-01-30T23:31:45.472Z,15.20
2023-01-30T23:34:48.218Z,13.50
2023-01-30T23:37:49.830Z,14.40
2023-01-30T23:40:51.483Z,14.00
2023-01-30T23:43:53.609Z,13.50
2023-01-30T23:46:55.284Z,12.90
2023-01-30T23:49:56.778Z,13.10
2023-01-30T23:52:58.381Z,13.80
2023-01-30T23:55:59.954Z,13.10
2023-01-30T23:59:02.091Z,12.90
